Time;durP1;ratioP1;P1;durP2;ratioP2;P2;SDS_P1;SDS_P2;PMS_P1;PMS_P2;Temp;Humidity;BMP_temperature;BMP_pressure;BME280_temperature;BME280_humidity;BME280_pressure;Samples;Min_cycle;Max_cycle;Signal;HPM_P1;HPM_P2
2024/03/06 00:02:00;;;;;;;;;;;;;;;5.24;100.00;95524.03;10353017;28;1977;-69
2024/03/06 00:07:02;;;;;;;;;;;;;;;5.10;100.00;95523.56;10367952;28;2468;-70
2024/03/06 00:12:06;;;;;;;;;;;;;;;5.07;100.00;95520.56;10358270;28;2065;-69
2024/03/06 00:17:10;;;;;;;;;;;;;;;5.12;100.00;95523.31;10351057;28;1985;-69
2024/03/06 00:22:13;;;;;;;;;;;;;;;5.06;100.00;95525.09;10363961;28;2078;-71
2024/03/06 00:27:16;;;;;;;;;;;;;;;5.08;100.00;95522.19;10363397;28;1998;-70
2024/03/06 00:32:18;;;;;;;;;;;;;;;5.05;100.00;95522.69;10364973;28;2017;-70
2024/03/06 00:37:22;;;;;;;;;;;;;;;5.13;100.00;95520.41;10364668;28;2125;-69
2024/03/06 00:42:24;;;;;;;;;;;;;;;5.05;100.00;95512.03;10362196;28;2070;-71
2024/03/06 00:47:27;;;;;;;;;;;;;;;5.16;100.00;95519.13;10361298;28;2365;-68
2024/03/06 00:52:30;;;;;;;;;;;;;;;5.09;100.00;95513.97;10366121;28;1930;-69
2024/03/06 00:57:33;;;;;;;;;;;;;;;5.02;100.00;95513.31;10363690;28;2003;-70
2024/03/06 01:02:36;;;;;;;;;;;;;;;5.07;100.00;95509.91;10364418;28;2313;-68
2024/03/06 01:07:39;;;;;;;;;;;;;;;5.04;100.00;95518.41;10368396;28;1897;-69
2024/03/06 01:12:45;;;;;;;;;;;;;;;5.09;100.00;95511.31;10365222;28;2038;-69
2024/03/06 01:17:48;;;;;;;;;;;;;;;5.06;100.00;95510.97;10368096;28;1941;-69
2024/03/06 01:22:50;;;;;;;;;;;;;;;5.02;100.00;95510.63;10361928;28;1982;-70
2024/03/06 01:27:53;;;;;;;;;;;;;;;4.95;100.00;95499.34;10355294;28;1919;-69
2024/03/06 01:32:56;;;;;;;;;;;;;;;5.01;100.00;95494.91;10350330;28;1879;-70
2024/03/06 01:37:58;;;;;;;;;;;;;;;4.96;100.00;95503.63;10358741;28;1881;-70
2024/03/06 01:43:02;;;;;;;;;;;;;;;4.99;100.00;95495.16;10359606;28;2214;-70
2024/03/06 01:48:05;;;;;;;;;;;;;;;4.88;100.00;95496.06;10371616;28;2413;-69
2024/03/06 01:53:07;;;;;;;;;;;;;;;4.98;100.00;95495.41;10378521;28;1980;-69
2024/03/06 01:58:10;;;;;;;;;;;;;;;4.93;100.00;95482.81;10361379;28;1957;-68
2024/03/06 02:03:13;;;;;;;;;;;;;;;4.88;100.00;95480.88;10360724;28;2001;-74
2024/03/06 02:08:16;;;;;;;;;;;;;;;4.78;100.00;95482.63;10362268;28;2058;-70
2024/03/06 02:13:19;;;;;;;;;;;;;;;4.84;100.00;95477.13;10367148;28;1937;-68
2024/03/06 02:18:22;;;;;;;;;;;;;;;4.92;100.00;95472.41;10361268;28;1994;-67
2024/03/06 02:23:24;;;;;;;;;;;;;;;4.97;100.00;95475.16;10366310;28;1910;-69
2024/03/06 02:28:28;;;;;;;;;;;;;;;4.84;100.00;95471.78;10379166;28;2094;-67
2024/03/06 02:33:30;;;;;;;;;;;;;;;4.84;100.00;95471.78;10356978;28;2484;-68
2024/03/06 02:38:33;;;;;;;;;;;;;;;4.97;100.00;95472.50;10361273;28;1900;-69
2024/03/06 02:43:36;;;;;;;;;;;;;;;5.11;100.00;95479.88;10350432;28;2234;-69
2024/03/06 02:48:40;;;;;;;;;;;;;;;4.99;100.00;95465.06;10359163;28;1869;-70
2024/03/06 02:53:43;;;;;;;;;;;;;;;4.92;100.00;95470.56;10360902;28;1898;-69
2024/03/06 02:58:45;;;;;;;;;;;;;;;4.97;100.00;95477.81;10359523;28;1969;-75
2024/03/06 03:03:48;;;;;;;;;;;;;;;5.00;100.00;95477.31;10369345;28;1922;-69
2024/03/06 03:08:51;;;;;;;;;;;;;;;5.05;100.00;95472.06;10357231;28;2003;-69
2024/03/06 03:13:55;;;;;;;;;;;;;;;4.99;100.00;95475.72;10356393;28;2324;-72
2024/03/06 03:18:58;;;;;;;;;;;;;;;5.14;100.00;95482.03;10354218;28;2070;-70
2024/03/06 03:24:00;;;;;;;;;;;;;;;5.11;100.00;95485.22;10361111;28;2062;-70
2024/03/06 03:29:03;;;;;;;;;;;;;;;5.02;100.00;95480.53;10352790;28;2625;-69
2024/03/06 03:34:06;;;;;;;;;;;;;;;5.02;100.00;95493.84;10361432;28;2137;-69
2024/03/06 03:39:15;;;;;;;;;;;;;;;5.21;100.00;95492.53;10359227;28;1873;-70
2024/03/06 03:44:18;;;;;;;;;;;;;;;5.30;100.00;95493.72;10366341;28;2026;-69
2024/03/06 03:49:21;;;;;;;;;;;;;;;5.41;100.00;95495.47;10364533;28;2360;-70
2024/03/06 03:54:24;;;;;;;;;;;;;;;5.34;100.00;95486.84;10370782;28;2084;-69
2024/03/06 03:59:27;;;;;;;;;;;;;;;5.32;100.00;95488.94;10369967;28;2088;-70
2024/03/06 04:04:30;;;;;;;;;;;;;;;5.42;100.00;95502.41;10375182;28;2056;-77
2024/03/06 04:09:35;;;;;;;;;;;;;;;5.45;100.00;95505.63;10363622;28;2548;-67
2024/03/06 04:14:38;;;;;;;;;;;;;;;5.40;100.00;95507.16;10365225;28;2244;-74
2024/03/06 04:19:40;;;;;;;;;;;;;;;5.29;100.00;95513.44;10368529;28;2011;-73
2024/03/06 04:24:43;;;;;;;;;;;;;;;5.23;100.00;95519.75;10365500;28;1924;-68
2024/03/06 04:29:46;;;;;;;;;;;;;;;5.14;100.00;95515.88;10368114;28;2097;-69
2024/03/06 04:34:48;;;;;;;;;;;;;;;5.17;100.00;95510.06;10369921;28;1951;-68
2024/03/06 04:39:51;;;;;;;;;;;;;;;5.13;100.00;95519.59;10370656;28;2293;-69
2024/03/06 04:44:54;;;;;;;;;;;;;;;5.10;100.00;95514.78;10363805;28;1981;-69
2024/03/06 04:49:58;;;;;;;;;;;;;;;5.11;100.00;95521.72;10372995;28;1852;-69
2024/03/06 04:55:03;;;;;;;;;;;;;;;5.13;100.00;95527.59;10369011;28;2670;-69
2024/03/06 05:00:05;;;;;;;;;;;;;;;5.06;100.00;95545.59;10362432;28;2010;-72
2024/03/06 05:05:08;;;;;;;;;;;;;;;4.96;100.00;95540.13;10366824;28;1993;-70
2024/03/06 05:10:28;;;;;;;;;;;;;;;5.06;100.00;95553.59;10374277;28;2036;-69
2024/03/06 05:15:49;;;;;;;;;;;;;;;5.07;100.00;95553.34;10366996;28;2057;-69
2024/03/06 05:21:09;;;;;;;;;;;;;;;5.18;100.00;95564.16;10367746;28;2209;-70
2024/03/06 05:26:29;;;;;;;;;;;;;;;5.22;100.00;95558.13;10357977;28;2420;-68
2024/03/06 05:31:49;;;;;;;;;;;;;;;5.23;100.00;95578.38;10364760;28;1907;-70
2024/03/06 05:37:09;;;;;;;;;;;;;;;5.14;100.00;95574.50;10359841;28;2584;-69
2024/03/06 05:42:30;;;;;;;;;;;;;;;5.04;100.00;95572.50;10363379;28;2064;-69
2024/03/06 05:47:53;;;;;;;;;;;;;;;4.95;100.00;95573.13;10362310;28;2062;-69
2024/03/06 05:53:13;;;;;;;;;;;;;;;5.01;100.00;95590.81;10361016;28;2181;-68
2024/03/06 05:58:34;;;;;;;;;;;;;;;5.07;100.00;95589.84;10364889;28;1933;-68
2024/03/06 06:03:38;;;;;;;;;;;;;;;5.05;100.00;95587.44;10371938;28;2144;-70
2024/03/06 06:08:40;;;;;;;;;;;;;;;5.11;100.00;95604.31;10367733;28;2004;-70
2024/03/06 06:13:43;;;;;;;;;;;;;;;4.94;100.00;95609.63;10354635;28;2109;-70
2024/03/06 06:18:47;;;;;;;;;;;;;;;5.06;100.00;95606.88;10361074;28;2390;-69
2024/03/06 06:23:49;;;;;;;;;;;;;;;5.08;100.00;95620.75;10360109;28;2571;-69
2024/03/06 06:28:52;;;;;;;;;;;;;;;5.06;100.00;95625.53;10360347;28;1928;-72
2024/03/06 06:33:56;;;;;;;;;;;;;;;4.98;100.00;95631.28;10358402;28;1950;-70
2024/03/06 06:38:59;;;;;;;;;;;;;;;4.94;100.00;95625.59;10379484;28;2102;-68
2024/03/06 06:44:06;;;;;;;;;;;;;;;5.01;100.00;95634.25;10360657;28;1922;-70
2024/03/06 06:49:09;;;;;;;;;;;;;;;4.88;100.00;95635.34;10357509;28;2094;-68
2024/03/06 06:54:11;;;;;;;;;;;;;;;4.86;100.00;95640.13;10362107;28;2062;-68
2024/03/06 06:59:14;;;;;;;;;;;;;;;4.94;100.00;95640.78;10358295;28;2016;-69
2024/03/06 07:04:20;;;;;;;;;;;;;;;5.04;100.00;95644.44;10353371;28;2542;-68
2024/03/06 07:09:23;;;;;;;;;;;;;;;5.17;100.00;95643.31;10355901;28;2078;-73
2024/03/06 07:14:28;;;;;;;;;;;;;;;5.30;100.00;95648.31;10358925;28;1999;-69
2024/03/06 07:19:32;;;;;;;;;;;;;;;5.33;100.00;95655.78;10357574;28;1990;-70
2024/03/06 07:24:34;;;;;;;;;;;;;;;5.30;100.00;95658.97;10375459;28;1919;-70
2024/03/06 07:29:43;;;;;;;;;;;;;;;5.26;100.00;95663.16;10353700;28;1959;-69
2024/03/06 07:34:46;;;;;;;;;;;;;;;5.30;100.00;95666.97;10361212;28;2120;-70
2024/03/06 07:39:48;;;;;;;;;;;;;;;5.31;100.00;95665.09;10355090;28;1899;-71
2024/03/06 07:44:55;;;;;;;;;;;;;;;5.32;100.00;95677.38;10361749;28;2086;-70
2024/03/06 07:49:58;;;;;;;;;;;;;;;5.50;100.00;95676.31;10370650;28;2574;-71
2024/03/06 07:55:03;;;;;;;;;;;;;;;5.35;100.00;95676.91;10356330;28;1902;-73
2024/03/06 08:00:14;;;;;;;;;;;;;;;5.16;100.00;95684.31;10356804;28;2093;-69
2024/03/06 08:05:17;;;;;;;;;;;;;;;5.18;100.00;95692.06;10358183;28;1997;-69
2024/03/06 08:10:20;;;;;;;;;;;;;;;5.42;100.00;95685.53;10369951;28;2001;-68
2024/03/06 08:15:23;;;;;;;;;;;;;;;5.45;100.00;95694.91;10363480;28;2059;-68
2024/03/06 08:20:27;;;;;;;;;;;;;;;5.31;100.00;95703.22;10367949;28;1982;-70
2024/03/06 08:25:32;;;;;;;;;;;;;;;5.29;100.00;95705.31;10354906;28;1973;-70
2024/03/06 08:30:35;;;;;;;;;;;;;;;5.42;100.00;95709.53;10353369;28;2791;-70
2024/03/06 08:35:37;;;;;;;;;;;;;;;5.36;100.00;95700.63;10364622;28;2246;-70
2024/03/06 08:40:42;;;;;;;;;;;;;;;5.57;100.00;95714.28;10352627;28;2098;-73
2024/03/06 08:45:47;;;;;;;;;;;;;;;5.63;100.00;95715.97;10367777;28;2021;-70
2024/03/06 08:50:50;;;;;;;;;;;;;;;5.50;100.00;95716.31;10369050;28;2006;-70
2024/03/06 08:55:53;;;;;;;;;;;;;;;5.79;100.00;95720.50;10363441;28;2093;-69
2024/03/06 09:00:58;;;;;;;;;;;;;;;6.04;100.00;95722.72;10375241;28;1985;-70
2024/03/06 09:06:02;;;;;;;;;;;;;;;5.87;100.00;95732.63;10362820;28;1978;-68
2024/03/06 09:11:07;;;;;;;;;;;;;;;6.11;100.00;95733.25;10366363;28;1912;-68
2024/03/06 09:16:09;;;;;;;;;;;;;;;5.84;100.00;95739.22;10380806;28;2141;-70
2024/03/06 09:21:13;;;;;;;;;;;;;;;5.89;100.00;95741.16;10365394;28;1939;-73
2024/03/06 09:26:16;;;;;;;;;;;;;;;5.85;100.00;95746.19;10361820;28;3213;-69
2024/03/06 09:31:18;;;;;;;;;;;;;;;5.95;100.00;95746.38;10371547;28;1931;-70
2024/03/06 09:36:21;;;;;;;;;;;;;;;6.04;100.00;95749.41;10361081;28;1881;-70
2024/03/06 09:41:24;;;;;;;;;;;;;;;5.80;100.00;95754.13;10369332;28;1980;-71
2024/03/06 09:46:29;;;;;;;;;;;;;;;5.88;100.00;95760.91;10371551;28;1982;-71
2024/03/06 09:51:33;;;;;;;;;;;;;;;6.26;100.00;95762.00;10366888;28;1894;-69
2024/03/06 09:56:36;;;;;;;;;;;;;;;6.45;100.00;95763.34;10357518;28;2326;-70
2024/03/06 10:01:40;;;;;;;;;;;;;;;6.22;100.00;95767.03;10370724;28;2029;-69
2024/03/06 10:06:42;;;;;;;;;;;;;;;6.27;100.00;95769.75;10356244;28;2120;-69
2024/03/06 10:11:45;;;;;;;;;;;;;;;6.22;100.00;95767.81;10360664;28;2058;-70
2024/03/06 10:16:47;;;;;;;;;;;;;;;5.84;100.00;95779.25;10367140;28;2712;-74
2024/03/06 10:21:51;;;;;;;;;;;;;;;5.82;100.00;95778.69;10379723;28;1906;-73
2024/03/06 10:26:54;;;;;;;;;;;;;;;5.90;100.00;95780.94;10365388;28;2042;-73
2024/03/06 10:31:57;;;;;;;;;;;;;;;5.60;100.00;95786.63;10365641;28;2054;-75
2024/03/06 10:36:59;;;;;;;;;;;;;;;5.34;100.00;95792.53;10369886;28;1889;-75
2024/03/06 10:42:02;;;;;;;;;;;;;;;5.38;100.00;95788.34;10359614;28;1969;-70
2024/03/06 10:47:05;;;;;;;;;;;;;;;5.73;100.00;95795.34;10359319;28;2013;-71
2024/03/06 10:52:08;;;;;;;;;;;;;;;5.40;100.00;95797.72;10361906;28;1896;-69
2024/03/06 10:57:10;;;;;;;;;;;;;;;5.69;100.00;95797.69;10359283;28;2448;-70
2024/03/06 11:02:13;;;;;;;;;;;;;;;5.96;100.00;95805.88;10360165;28;2053;-68
2024/03/06 11:07:16;;;;;;;;;;;;;;;6.05;100.00;95801.75;10362402;28;1983;-69
2024/03/06 11:12:19;;;;;;;;;;;;;;;6.32;100.00;95804.53;10359180;28;2130;-69
2024/03/06 11:17:21;;;;;;;;;;;;;;;6.25;100.00;95798.56;10356856;28;1912;-70
2024/03/06 11:22:24;;;;;;;;;;;;;;;6.18;100.00;95798.75;10360019;28;1934;-69
2024/03/06 11:27:27;;;;;;;;;;;;;;;6.37;100.00;95801.94;10364332;28;2024;-68
2024/03/06 11:32:31;;;;;;;;;;;;;;;6.43;100.00;95808.97;10374860;28;2016;-68
2024/03/06 11:37:34;;;;;;;;;;;;;;;6.32;100.00;95799.19;10359556;28;1929;-69
2024/03/06 11:42:37;;;;;;;;;;;;;;;6.20;100.00;95806.50;10363182;28;2190;-69
2024/03/06 11:47:40;;;;;;;;;;;;;;;6.15;100.00;95793.06;10364555;28;1935;-71
2024/03/06 11:52:43;;;;;;;;;;;;;;;6.30;100.00;95809.34;10360185;28;2556;-69
2024/03/06 11:57:46;;;;;;;;;;;;;;;6.04;100.00;95816.13;10360186;28;2100;-72
2024/03/06 12:02:48;;;;;;;;;;;;;;;5.60;100.00;95815.16;10355819;28;2007;-70
2024/03/06 12:07:51;;;;;;;;;;;;;;;5.29;100.00;95821.78;10363500;28;1990;-70
2024/03/06 12:12:54;;;;;;;;;;;;;;;5.43;100.00;95823.09;10362620;28;2006;-70
2024/03/06 12:17:56;;;;;;;;;;;;;;;5.53;100.00;95822.47;10367977;28;1940;-71
2024/03/06 12:22:59;;;;;;;;;;;;;;;5.50;100.00;95828.28;10360085;28;1973;-70
2024/03/06 12:28:01;;;;;;;;;;;;;;;5.64;100.00;95830.41;10364834;28;2155;-69
2024/03/06 12:33:05;;;;;;;;;;;;;;;5.86;100.00;95833.19;10367490;28;2146;-70
2024/03/06 12:38:08;;;;;;;;;;;;;;;5.76;100.00;95826.88;10361246;28;2624;-74
2024/03/06 12:43:11;;;;;;;;;;;;;;;5.78;100.00;95832.75;10366396;28;2222;-71
2024/03/06 12:48:13;;;;;;;;;;;;;;;6.00;100.00;95832.88;10362660;28;2033;-70
2024/03/06 12:53:16;;;;;;;;;;;;;;;5.78;100.00;95846.91;10365301;28;2062;-70
2024/03/06 12:58:18;;;;;;;;;;;;;;;5.80;100.00;95842.16;10366843;28;2097;-69
2024/03/06 13:03:21;;;;;;;;;;;;;;;5.92;100.00;95836.78;10374405;28;1919;-69
2024/03/06 13:08:24;;;;;;;;;;;;;;;5.81;100.00;95841.09;10362717;28;2121;-74
2024/03/06 13:13:28;;;;;;;;;;;;;;;5.82;100.00;95832.03;10363162;28;2112;-73
2024/03/06 13:18:31;;;;;;;;;;;;;;;5.61;100.00;95835.44;10370349;28;1938;-70
2024/03/06 13:23:34;;;;;;;;;;;;;;;5.50;100.00;95837.09;10368266;28;2530;-72
2024/03/06 13:28:37;;;;;;;;;;;;;;;5.77;100.00;95831.94;10365087;28;1909;-71
2024/03/06 13:33:40;;;;;;;;;;;;;;;5.96;100.00;95828.03;10362190;28;2110;-70
2024/03/06 13:38:43;;;;;;;;;;;;;;;6.14;100.00;95828.84;10360834;28;2246;-70
2024/03/06 13:43:46;;;;;;;;;;;;;;;6.16;100.00;95832.06;10361909;28;1969;-69
2024/03/06 13:48:49;;;;;;;;;;;;;;;6.45;100.00;95830.91;10366245;28;2121;-69
2024/03/06 13:53:51;;;;;;;;;;;;;;;6.63;100.00;95832.47;10366321;28;1956;-69
2024/03/06 13:58:54;;;;;;;;;;;;;;;6.54;100.00;95833.13;10365002;28;2014;-68
2024/03/06 14:03:57;;;;;;;;;;;;;;;6.55;100.00;95830.22;10360745;28;2418;-68
2024/03/06 14:09:03;;;;;;;;;;;;;;;6.54;100.00;95827.78;10359478;28;2139;-70
2024/03/06 14:14:06;;;;;;;;;;;;;;;6.47;100.00;95833.31;10359690;28;2010;-68
2024/03/06 14:19:09;;;;;;;;;;;;;;;6.70;100.00;95829.63;10359125;28;2130;-69
2024/03/06 14:24:11;;;;;;;;;;;;;;;6.67;100.00;95832.78;10361314;28;1979;-70
2024/03/06 14:29:14;;;;;;;;;;;;;;;6.75;100.00;95827.03;10363761;28;2116;-68
2024/03/06 14:34:16;;;;;;;;;;;;;;;6.83;100.00;95825.78;10360918;28;1978;-69
2024/03/06 14:39:21;;;;;;;;;;;;;;;6.99;100.00;95831.03;10359627;28;1951;-71
2024/03/06 14:44:24;;;;;;;;;;;;;;;7.16;100.00;95841.66;10362810;28;1970;-70
2024/03/06 14:49:27;;;;;;;;;;;;;;;6.87;100.00;95842.91;10359281;28;1949;-69
2024/03/06 14:54:29;;;;;;;;;;;;;;;7.15;100.00;95847.28;10360680;28;2580;-69
2024/03/06 14:59:32;;;;;;;;;;;;;;;6.98;100.00;95850.81;10362750;28;2118;-71
2024/03/06 15:04:35;;;;;;;;;;;;;;;7.12;100.00;95855.78;10361715;28;1991;-70
2024/03/06 15:09:37;;;;;;;;;;;;;;;7.17;100.00;95847.81;10358043;28;2065;-70
2024/03/06 15:14:40;;;;;;;;;;;;;;;6.93;100.00;95856.09;10361702;28;1939;-69
2024/03/06 15:19:49;;;;;;;;;;;;;;;7.13;100.00;95852.06;10367856;28;1962;-69
2024/03/06 15:24:52;;;;;;;;;;;;;;;7.12;100.00;95850.44;10359561;28;1960;-70
2024/03/06 15:29:55;;;;;;;;;;;;;;;6.76;100.00;95864.16;10358964;28;2033;-68
2024/03/06 15:34:58;;;;;;;;;;;;;;;6.70;100.00;95864.34;10362760;28;1945;-70
2024/03/06 15:40:03;;;;;;;;;;;;;;;6.73;100.00;95870.00;10363171;28;2130;-71
2024/03/06 15:45:06;;;;;;;;;;;;;;;6.50;100.00;95884.38;10365933;28;2172;-68
2024/03/06 15:50:10;;;;;;;;;;;;;;;6.58;100.00;95877.00;10365861;28;2421;-71
2024/03/06 15:55:13;;;;;;;;;;;;;;;6.66;100.00;95876.56;10372381;28;2141;-67
2024/03/06 16:00:16;;;;;;;;;;;;;;;6.57;100.00;95876.19;10366770;28;2066;-69
2024/03/06 16:05:19;;;;;;;;;;;;;;;6.53;100.00;95879.59;10383584;28;1933;-70
2024/03/06 16:10:22;;;;;;;;;;;;;;;6.43;100.00;95886.41;10359111;28;2087;-70
2024/03/06 16:15:25;;;;;;;;;;;;;;;6.34;100.00;95887.88;10370033;28;1936;-70
2024/03/06 16:20:28;;;;;;;;;;;;;;;6.28;100.00;95894.19;10375423;28;1929;-69
2024/03/06 16:25:32;;;;;;;;;;;;;;;6.17;100.00;95898.56;10379548;28;1986;-69
2024/03/06 16:30:35;;;;;;;;;;;;;;;5.92;100.00;95906.94;10378440;28;1956;-69
2024/03/06 16:35:39;;;;;;;;;;;;;;;5.82;100.00;95911.25;10375961;28;1882;-69
2024/03/06 16:40:42;;;;;;;;;;;;;;;5.69;100.00;95923.84;10371458;28;2114;-70
2024/03/06 16:45:44;;;;;;;;;;;;;;;5.60;100.00;95924.47;10364992;28;2313;-70
2024/03/06 16:50:48;;;;;;;;;;;;;;;5.56;100.00;95931.31;10365963;28;1959;-70
2024/03/06 16:55:51;;;;;;;;;;;;;;;5.51;100.00;95926.69;10366622;28;2094;-70
2024/03/06 17:00:54;;;;;;;;;;;;;;;5.51;100.00;95937.38;10366942;28;1893;-71
2024/03/06 17:05:56;;;;;;;;;;;;;;;5.36;100.00;95940.53;10371588;28;2247;-69
2024/03/06 17:10:59;;;;;;;;;;;;;;;5.48;100.00;95942.38;10370749;28;1949;-73
2024/03/06 17:16:03;;;;;;;;;;;;;;;5.32;100.00;95946.56;10363185;28;2042;-70
2024/03/06 17:21:05;;;;;;;;;;;;;;;5.31;100.00;95943.09;10362358;28;1971;-76
2024/03/06 17:26:10;;;;;;;;;;;;;;;5.35;100.00;95957.59;10379406;28;1929;-75
2024/03/06 17:31:13;;;;;;;;;;;;;;;5.42;100.00;95963.59;10358586;28;2117;-70
2024/03/06 17:36:15;;;;;;;;;;;;;;;5.47;100.00;95962.06;10369196;28;2540;-70
2024/03/06 17:41:18;;;;;;;;;;;;;;;5.69;100.00;95961.19;10350442;28;2102;-71
2024/03/06 17:46:21;;;;;;;;;;;;;;;5.52;100.00;95962.97;10361453;28;2058;-72
2024/03/06 17:51:24;;;;;;;;;;;;;;;5.79;100.00;95962.41;10356984;28;2137;-70
2024/03/06 17:56:26;;;;;;;;;;;;;;;5.65;100.00;95969.88;10375068;28;2219;-72
2024/03/06 18:01:29;;;;;;;;;;;;;;;5.55;100.00;95975.03;10375795;28;1973;-68
2024/03/06 18:06:32;;;;;;;;;;;;;;;5.48;100.00;95979.69;10362730;28;1981;-72
2024/03/06 18:11:34;;;;;;;;;;;;;;;5.35;100.00;95986.09;10361829;28;2090;-69
2024/03/06 18:16:40;;;;;;;;;;;;;;;5.33;100.00;95996.97;10363749;28;2432;-69
2024/03/06 18:21:43;;;;;;;;;;;;;;;5.28;100.00;95988.91;10360673;28;2003;-70
2024/03/06 18:26:49;;;;;;;;;;;;;;;5.52;100.00;95996.81;10358008;28;2150;-70
2024/03/06 18:31:51;;;;;;;;;;;;;;;5.56;100.00;95982.00;10355509;28;2005;-70
2024/03/06 18:36:54;;;;;;;;;;;;;;;5.39;100.00;95988.03;10359904;28;1916;-70
2024/03/06 18:41:59;;;;;;;;;;;;;;;5.15;100.00;95992.63;10358274;28;2052;-69
2024/03/06 18:47:22;;;;;;;;;;;;;;;5.11;100.00;95994.13;10366138;28;2081;-69
2024/03/06 18:52:25;;;;;;;;;;;;;;;5.11;100.00;96006.66;10353910;28;2340;-70
2024/03/06 18:57:28;;;;;;;;;;;;;;;4.97;100.00;96007.94;10356792;28;1920;-67
2024/03/06 19:02:31;;;;;;;;;;;;;;;4.96;100.00;96014.28;10359013;28;2500;-68
2024/03/06 19:07:35;;;;;;;;;;;;;;;4.87;100.00;96011.16;10359813;28;2048;-68
2024/03/06 19:12:37;;;;;;;;;;;;;;;4.89;100.00;96020.53;10358558;28;2031;-69
2024/03/06 19:17:40;;;;;;;;;;;;;;;4.89;100.00;96015.22;10360759;28;1934;-70
2024/03/06 19:22:43;;;;;;;;;;;;;;;4.89;100.00;96020.53;10360064;28;1976;-71
2024/03/06 19:27:46;;;;;;;;;;;;;;;4.79;100.00;96019.50;10356785;28;2414;-69
2024/03/06 19:32:50;;;;;;;;;;;;;;;4.74;100.00;96027.38;10355296;28;2081;-69
2024/03/06 19:37:58;;;;;;;;;;;;;;;4.65;100.00;96026.09;10354720;28;2117;-69
2024/03/06 19:43:01;;;;;;;;;;;;;;;4.60;100.00;96024.13;10356159;28;1972;-68
2024/03/06 19:48:03;;;;;;;;;;;;;;;4.59;100.00;96019.84;10363157;28;2420;-69
2024/03/06 19:53:06;;;;;;;;;;;;;;;4.65;100.00;96021.59;10358239;28;1994;-68
2024/03/06 19:58:09;;;;;;;;;;;;;;;4.63;100.00;96026.31;10355090;28;2076;-70
2024/03/06 20:03:12;;;;;;;;;;;;;;;4.41;100.00;96026.06;10359454;28;1963;-70
2024/03/06 20:08:14;;;;;;;;;;;;;;;4.50;100.00;96029.19;10362648;28;1991;-70
2024/03/06 20:13:17;;;;;;;;;;;;;;;4.48;100.00;96031.28;10358066;28;1952;-71
2024/03/06 20:18:20;;;;;;;;;;;;;;;4.46;100.00;96036.84;10359938;28;2043;-69
2024/03/06 20:23:23;;;;;;;;;;;;;;;4.48;100.00;96044.59;10353545;28;1962;-70
2024/03/06 20:28:29;;;;;;;;;;;;;;;4.52;100.00;96040.44;10358115;28;1987;-70
2024/03/06 20:33:32;;;;;;;;;;;;;;;4.45;100.00;96039.69;10369520;28;2078;-69
2024/03/06 20:38:35;;;;;;;;;;;;;;;4.56;100.00;96046.91;10370540;28;2117;-72
2024/03/06 20:43:39;;;;;;;;;;;;;;;4.69;100.00;96041.38;10362481;28;2234;-74
2024/03/06 20:48:43;;;;;;;;;;;;;;;4.96;100.00;96051.56;10364994;28;2062;-73
2024/03/06 20:53:47;;;;;;;;;;;;;;;4.93;100.00;96047.53;10358445;28;2169;-73
2024/03/06 20:58:51;;;;;;;;;;;;;;;4.94;100.00;96040.34;10369854;28;2242;-76
2024/03/06 21:03:54;;;;;;;;;;;;;;;4.65;100.00;96034.09;10363615;28;1978;-70
2024/03/06 21:08:56;;;;;;;;;;;;;;;4.54;100.00;96046.34;10377413;28;2160;-68
2024/03/06 21:14:00;;;;;;;;;;;;;;;4.47;100.00;96032.31;10362603;28;2058;-69
2024/03/06 21:19:03;;;;;;;;;;;;;;;4.38;100.00;96023.84;10364588;28;1857;-69
2024/03/06 21:24:07;;;;;;;;;;;;;;;4.31;100.00;96034.59;10361892;28;2066;-67
2024/03/06 21:29:10;;;;;;;;;;;;;;;4.23;100.00;96029.59;10366716;28;2624;-69
2024/03/06 21:34:13;;;;;;;;;;;;;;;4.24;100.00;96028.56;10370768;28;1930;-68
2024/03/06 21:39:16;;;;;;;;;;;;;;;4.17;100.00;96022.53;10358706;28;1955;-70
2024/03/06 21:44:22;;;;;;;;;;;;;;;4.07;100.00;96030.22;10361066;28;2070;-70
2024/03/06 21:49:30;;;;;;;;;;;;;;;4.09;100.00;96027.38;10352946;28;2135;-69
2024/03/06 21:54:33;;;;;;;;;;;;;;;4.10;100.00;96035.09;10366274;28;1920;-69
2024/03/06 21:59:36;;;;;;;;;;;;;;;3.97;100.00;96029.97;10367719;28;2009;-69
2024/03/06 22:04:39;;;;;;;;;;;;;;;4.00;100.00;96030.31;10375711;28;2171;-70
2024/03/06 22:09:42;;;;;;;;;;;;;;;4.07;100.00;96030.22;10363720;28;1939;-70
2024/03/06 22:14:47;;;;;;;;;;;;;;;3.94;100.00;96025.91;10362597;28;2018;-70
2024/03/06 22:19:50;;;;;;;;;;;;;;;4.00;100.00;96030.31;10364363;28;2002;-69
2024/03/06 22:24:53;;;;;;;;;;;;;;;4.03;100.00;96026.41;10366980;28;1988;-69
2024/03/06 22:29:56;;;;;;;;;;;;;;;4.07;100.00;96028.41;10367071;28;2347;-69
2024/03/06 22:34:59;;;;;;;;;;;;;;;4.10;100.00;96029.78;10363388;28;2070;-70
2024/03/06 22:40:01;;;;;;;;;;;;;;;4.18;100.00;96034.78;10366189;28;2066;-69
2024/03/06 22:45:05;;;;;;;;;;;;;;;4.09;100.00;96032.69;10365841;28;1984;-68
2024/03/06 22:50:10;;;;;;;;;;;;;;;3.95;100.00;96026.75;10358185;28;1841;-68
2024/03/06 22:55:13;;;;;;;;;;;;;;;3.89;100.00;96032.97;10365183;28;2329;-69
2024/03/06 23:00:28;;;;;;;;;;;;;;;4.02;100.00;96035.44;10362604;28;1968;-68
2024/03/06 23:05:32;;;;;;;;;;;;;;;3.89;100.00;96032.97;10372665;28;2122;-73
2024/03/06 23:10:34;;;;;;;;;;;;;;;3.73;100.00;96042.34;10355202;28;2029;-70
2024/03/06 23:15:37;;;;;;;;;;;;;;;3.87;100.00;96035.00;10368646;28;1960;-69
2024/03/06 23:20:39;;;;;;;;;;;;;;;3.86;100.00;96030.72;10356783;28;1942;-74
2024/03/06 23:25:42;;;;;;;;;;;;;;;3.86;100.00;96034.19;10357191;28;2658;-69
2024/03/06 23:30:45;;;;;;;;;;;;;;;3.95;100.00;96040.03;10357394;28;2262;-68
2024/03/06 23:35:49;;;;;;;;;;;;;;;3.89;100.00;96036.44;10358630;28;2010;-68
2024/03/06 23:40:52;;;;;;;;;;;;;;;3.95;100.00;96029.41;10361195;28;1913;-68
2024/03/06 23:45:55;;;;;;;;;;;;;;;4.01;100.00;96028.50;10362311;28;1906;-67
2024/03/06 23:50:58;;;;;;;;;;;;;;;3.99;100.00;96038.53;10364017;28;1943;-68
2024/03/06 23:56:01;;;;;;;;;;;;;;;3.92;100.00;96030.63;10362072;28;2304;-68
